Time;durP1;ratioP1;P1;durP2;ratioP2;P2;SDS_P1;SDS_P2;PMS_P1;PMS_P2;Temp;Humidity;BMP_temperature;BMP_pressure;BME280_temperature;BME280_humidity;BME280_pressure;Samples;Min_cycle;Max_cycle;Signal;HPM_P1;HPM_P2
2021/11/21 00:00:30;;;;;;;;;;;;;;;2.87;92.47;96852.50;30001;983;1881;-61
2021/11/21 00:01:02;;;;;;;;;;;;;;;2.86;92.77;96848.19;30001;983;1876;-62
2021/11/21 00:01:33;;;;;;;;;;;;;;;2.85;92.61;96851.94;30001;983;1868;-58
2021/11/21 00:02:05;;;;;;;;;;;;;;;2.84;92.49;96850.31;30001;983;1859;-62
2021/11/21 00:02:36;;;;;;;;;;;;;;;2.81;92.68;96850.78;30001;983;1885;-62
2021/11/21 00:03:08;;;;;;;;;;;;;;;2.81;92.50;96850.78;30001;983;1881;-62
2021/11/21 00:03:39;;;;;;;;;;;;;;;2.80;92.72;96854.53;30001;983;1886;-62
2021/11/21 00:04:10;;;;;;;;;;;;;;;2.78;92.61;96857.44;30001;983;1881;-62
2021/11/21 00:04:41;;;;;;;;;;;;;;;2.78;92.64;96851.28;30001;982;1886;-61
2021/11/21 00:05:14;;;;;;;;;;;;;;;2.78;92.60;96853.97;30001;982;1882;-62
2021/11/21 00:05:45;;;;;;;;;;;;;;;2.76;92.90;96842.72;30001;982;1886;-61
2021/11/21 00:06:16;;;;;;;;;;;;;;;2.75;92.80;96847.25;30001;982;1882;-61
2021/11/21 00:06:48;;;;;;;;;;;;;;;2.76;93.13;96842.72;30001;982;1886;-63
2021/11/21 00:07:19;;;;;;;;;;;;;;;2.74;92.97;96842.12;30001;983;1863;-61
2021/11/21 00:07:50;;;;;;;;;;;;;;;2.72;93.22;96841.56;30001;983;1881;-62
2021/11/21 00:08:21;;;;;;;;;;;;;;;2.72;93.26;96839.69;30001;983;1881;-63
2021/11/21 00:08:52;;;;;;;;;;;;;;;2.74;93.23;96845.63;30001;983;1885;-61
2021/11/21 00:09:23;;;;;;;;;;;;;;;2.73;93.27;96835.97;30001;983;1881;-57
2021/11/21 00:09:54;;;;;;;;;;;;;;;2.73;93.36;96840.50;30001;983;1885;-62
2021/11/21 00:10:25;;;;;;;;;;;;;;;2.75;93.20;96841.09;30001;962;1902;-63
2021/11/21 00:10:57;;;;;;;;;;;;;;;2.74;93.31;96840.28;30001;983;1886;-56
2021/11/21 00:11:28;;;;;;;;;;;;;;;2.73;93.35;96846.69;30001;983;1881;-63
2021/11/21 00:11:59;;;;;;;;;;;;;;;2.72;93.70;96846.94;30001;982;1886;-61
2021/11/21 00:12:30;;;;;;;;;;;;;;;2.71;93.38;96835.41;30001;982;1864;-62
2021/11/21 00:13:02;;;;;;;;;;;;;;;2.72;93.58;96837.03;30001;982;1882;-61
2021/11/21 00:13:37;;;;;;;;;;;;;;;2.73;93.40;96837.84;30001;982;1864;-62
2021/11/21 00:14:09;;;;;;;;;;;;;;;2.73;93.52;96833.28;30001;982;1881;-62
2021/11/21 00:14:40;;;;;;;;;;;;;;;2.73;93.58;96832.47;30001;986;1850;-62
2021/11/21 00:15:10;;;;;;;;;;;;;;;2.70;93.56;96823.06;30001;983;1876;-62
2021/11/21 00:15:42;;;;;;;;;;;;;;;2.70;93.35;96833.78;30001;983;1876;-61
2021/11/21 00:16:13;;;;;;;;;;;;;;;2.71;93.33;96826.53;30001;983;1882;-62
2021/11/21 00:16:44;;;;;;;;;;;;;;;2.73;93.35;96827.12;30001;983;1775;-61
2021/11/21 00:17:14;;;;;;;;;;;;;;;2.74;93.49;96831.41;30001;983;1882;-61
2021/11/21 00:17:45;;;;;;;;;;;;;;;2.74;93.15;96823.37;30001;983;1877;-61
2021/11/21 00:18:16;;;;;;;;;;;;;;;2.75;93.21;96830.37;30001;983;1881;-62
2021/11/21 00:18:47;;;;;;;;;;;;;;;2.73;93.26;96832.47;30001;983;1877;-62
2021/11/21 00:19:18;;;;;;;;;;;;;;;2.71;93.40;96832.72;30001;983;1881;-57
2021/11/21 00:19:49;;;;;;;;;;;;;;;2.69;93.37;96830.28;30001;982;1859;-55
2021/11/21 00:20:20;;;;;;;;;;;;;;;2.68;93.57;96834.00;30001;982;1877;-61
2021/11/21 00:20:50;;;;;;;;;;;;;;;2.67;93.23;96832.41;30001;982;1877;-61
2021/11/21 00:21:21;;;;;;;;;;;;;;;2.67;93.70;96840.44;30001;982;1882;-62
2021/11/21 00:21:52;;;;;;;;;;;;;;;2.68;93.42;96842.06;30001;982;1877;-61
2021/11/21 00:22:25;;;;;;;;;;;;;;;2.70;93.40;96841.81;30001;983;1881;-60
2021/11/21 00:22:56;;;;;;;;;;;;;;;2.73;93.39;96848.56;30001;983;1859;-61
2021/11/21 00:23:27;;;;;;;;;;;;;;;2.76;93.65;96848.06;30001;983;1877;-61
2021/11/21 00:23:58;;;;;;;;;;;;;;;2.80;93.62;96846.50;30001;983;1877;-60
2021/11/21 00:24:29;;;;;;;;;;;;;;;2.81;93.48;96840.88;30001;983;1881;-56
2021/11/21 00:25:01;;;;;;;;;;;;;;;2.82;93.00;96847.06;30001;983;1876;-62
2021/11/21 00:25:33;;;;;;;;;;;;;;;2.79;93.08;96847.53;30001;983;1881;-61
2021/11/21 00:26:03;;;;;;;;;;;;;;;2.76;92.91;96837.34;30001;983;1877;-61
2021/11/21 00:26:34;;;;;;;;;;;;;;;2.75;93.43;96841.09;30001;983;1881;-61
2021/11/21 00:27:06;;;;;;;;;;;;;;;2.73;93.26;96833.28;30001;982;1877;-61
2021/11/21 00:27:37;;;;;;;;;;;;;;;2.72;93.18;96836.22;30001;982;1881;-61
2021/11/21 00:28:08;;;;;;;;;;;;;;;2.71;93.09;96831.91;30001;982;1860;-61
2021/11/21 00:28:38;;;;;;;;;;;;;;;2.69;93.25;96827.59;30001;985;1877;-62
2021/11/21 00:29:09;;;;;;;;;;;;;;;2.70;93.14;96831.09;30001;982;1877;-62
2021/11/21 00:29:40;;;;;;;;;;;;;;;2.69;93.36;96829.47;30001;983;1881;-62
2021/11/21 00:30:11;;;;;;;;;;;;;;;2.68;93.34;96831.34;30001;983;1876;-61
2021/11/21 00:30:42;;;;;;;;;;;;;;;2.69;93.29;96832.97;30001;983;1881;-60
2021/11/21 00:31:14;;;;;;;;;;;;;;;2.72;93.33;96836.22;30001;965;1895;-61
2021/11/21 00:31:45;;;;;;;;;;;;;;;2.79;93.56;96836.84;30001;983;1881;-61
2021/11/21 00:32:15;;;;;;;;;;;;;;;2.81;93.34;96827.50;30001;983;1877;-62
2021/11/21 00:32:47;;;;;;;;;;;;;;;2.82;93.14;96836.34;30001;983;1881;-56
2021/11/21 00:33:18;;;;;;;;;;;;;;;2.84;93.14;96832.38;30001;986;1855;-62
2021/11/21 00:33:49;;;;;;;;;;;;;;;2.83;93.01;96836.09;30001;975;1864;-61
2021/11/21 00:34:20;;;;;;;;;;;;;;;2.82;92.75;96830.97;30001;983;1881;-60
2021/11/21 00:34:51;;;;;;;;;;;;;;;2.83;92.91;96832.59;30001;982;1886;-60
2021/11/21 00:35:22;;;;;;;;;;;;;;;2.83;92.90;96836.09;30001;982;1881;-61
2021/11/21 00:35:53;;;;;;;;;;;;;;;2.80;92.70;96833.09;30001;982;1886;-61
2021/11/21 00:36:24;;;;;;;;;;;;;;;2.79;92.55;96826.12;30001;982;1882;-61
2021/11/21 00:36:55;;;;;;;;;;;;;;;2.75;92.69;96827.69;30001;982;1886;-61
2021/11/21 00:37:28;;;;;;;;;;;;;;;2.69;92.66;96832.97;30001;983;1881;-60
2021/11/21 00:37:59;;;;;;;;;;;;;;;2.66;92.93;96830.78;30001;983;1885;-62
2021/11/21 00:38:30;;;;;;;;;;;;;;;2.65;92.89;96821.09;30001;983;1881;-61
2021/11/21 00:39:12;;;;;;;;;;;;;;;2.69;92.71;96822.25;30001;983;1868;-62
2021/11/21 00:39:43;;;;;;;;;;;;;;;2.73;92.79;96822.56;30001;983;1877;-61
2021/11/21 00:40:14;;;;;;;;;;;;;;;2.75;92.73;96825.00;30001;983;1885;-62
2021/11/21 00:40:46;;;;;;;;;;;;;;;2.74;92.83;96820.69;30001;983;1881;-61
2021/11/21 00:41:17;;;;;;;;;;;;;;;2.73;92.52;96819.09;30001;982;1886;-62
2021/11/21 00:41:48;;;;;;;;;;;;;;;2.71;92.45;96818.50;30001;982;1881;-60
2021/11/21 00:42:19;;;;;;;;;;;;;;;2.69;92.81;96811.53;30001;982;1886;-62
2021/11/21 00:42:50;;;;;;;;;;;;;;;2.72;92.56;96814.78;30001;982;1881;-62
2021/11/21 00:43:22;;;;;;;;;;;;;;;2.72;92.69;96820.94;30001;982;1886;-62
2021/11/21 00:43:52;;;;;;;;;;;;;;;2.69;92.37;96816.88;30001;982;1882;-61
2021/11/21 00:44:23;;;;;;;;;;;;;;;2.65;92.58;96815.75;30001;982;1868;-62
2021/11/21 00:44:54;;;;;;;;;;;;;;;2.64;92.50;96818.66;30001;983;1876;-62
2021/11/21 00:45:26;;;;;;;;;;;;;;;2.62;92.80;96810.06;30001;983;1885;-60
2021/11/21 00:45:57;;;;;;;;;;;;;;;2.61;92.50;96819.97;30001;983;1881;-61
2021/11/21 00:46:28;;;;;;;;;;;;;;;2.61;92.60;96813.78;30001;983;1885;-62
2021/11/21 00:46:59;;;;;;;;;;;;;;;2.60;92.63;96812.97;30001;983;1881;-56
2021/11/21 00:47:29;;;;;;;;;;;;;;;2.62;92.93;96812.75;30001;983;1885;-61
2021/11/21 00:48:01;;;;;;;;;;;;;;;2.61;92.78;96811.94;30001;983;1881;-62
2021/11/21 00:48:33;;;;;;;;;;;;;;;2.61;93.17;96798.53;30001;983;1886;-63
2021/11/21 00:49:07;;;;;;;;;;;;;;;2.61;92.77;96803.91;30001;982;1881;-58
2021/11/21 00:49:40;;;;;;;;;;;;;;;2.58;93.07;96806.25;30001;982;1868;-62
2021/11/21 00:50:13;;;;;;;;;;;;;;;2.57;92.90;96802.75;30001;982;1877;-63
2021/11/21 00:50:44;;;;;;;;;;;;;;;2.57;93.12;96797.41;30001;982;1886;-57
2021/11/21 00:51:17;;;;;;;;;;;;;;;2.56;93.16;96801.13;30001;982;1882;-63
2021/11/21 00:51:49;;;;;;;;;;;;;;;2.52;93.16;96799.19;30001;982;1886;-57
2021/11/21 00:52:21;;;;;;;;;;;;;;;2.50;93.01;96794.06;30001;983;1881;-57
2021/11/21 00:52:58;;;;;;;;;;;;;;;2.53;93.27;96798.13;30001;983;1868;-62
2021/11/21 00:53:31;;;;;;;;;;;;;;;2.54;93.18;96797.88;30001;983;1877;-61
2021/11/21 00:54:21;;;;;;;;;;;;;;;2.56;93.17;96789.59;30001;983;1868;-61
2021/11/21 00:55:07;;;;;;;;;;;;;;;2.57;93.40;96792.03;30001;983;1877;-62
2021/11/21 00:55:39;;;;;;;;;;;;;;;2.57;93.14;96791.22;30001;983;1886;-62
2021/11/21 00:56:10;;;;;;;;;;;;;;;2.55;93.21;96783.44;30001;983;1864;-57
2021/11/21 00:56:41;;;;;;;;;;;;;;;2.56;93.29;96789.59;30001;982;1864;-62
2021/11/21 00:57:12;;;;;;;;;;;;;;;2.54;93.10;96787.16;30001;982;1881;-63
2021/11/21 00:57:44;;;;;;;;;;;;;;;2.54;93.23;96787.16;30001;982;1886;-63
2021/11/21 00:58:15;;;;;;;;;;;;;;;2.55;93.32;96788.78;30001;982;1864;-62
2021/11/21 00:58:46;;;;;;;;;;;;;;;2.54;93.55;96787.16;30001;982;1864;-62
2021/11/21 00:59:19;;;;;;;;;;;;;;;2.55;93.28;96786.13;30001;982;1882;-56
2021/11/21 00:59:50;;;;;;;;;;;;;;;2.55;93.40;96791.47;30001;983;1885;-62
2021/11/21 01:00:21;;;;;;;;;;;;;;;2.57;93.54;96792.03;30001;983;1881;-62
2021/11/21 01:00:52;;;;;;;;;;;;;;;2.55;93.83;96788.78;30001;983;1885;-62
2021/11/21 01:01:23;;;;;;;;;;;;;;;2.56;93.81;96785.06;30001;983;1881;-62
2021/11/21 01:01:54;;;;;;;;;;;;;;;2.54;93.51;96781.81;30001;983;1885;-62
2021/11/21 01:02:25;;;;;;;;;;;;;;;2.56;93.61;96784.25;30001;983;1881;-62
2021/11/21 01:02:56;;;;;;;;;;;;;;;2.56;93.79;96785.06;30001;983;1868;-62
2021/11/21 01:03:27;;;;;;;;;;;;;;;2.57;93.50;96784.00;30001;983;1877;-63
2021/11/21 01:03:58;;;;;;;;;;;;;;;2.58;93.58;96776.78;30001;982;1886;-62
2021/11/21 01:04:29;;;;;;;;;;;;;;;2.57;93.48;96786.69;30001;982;1881;-62
2021/11/21 01:05:00;;;;;;;;;;;;;;;2.56;93.39;96786.94;30001;982;1886;-62
2021/11/21 01:05:31;;;;;;;;;;;;;;;2.56;93.49;96789.59;30001;982;1881;-62
2021/11/21 01:06:02;;;;;;;;;;;;;;;2.56;93.56;96785.06;30001;982;1886;-60
2021/11/21 01:06:32;;;;;;;;;;;;;;;2.56;93.66;96792.28;30001;982;1882;-62
2021/11/21 01:07:03;;;;;;;;;;;;;;;2.56;93.77;96786.94;30001;982;1886;-62
2021/11/21 01:07:37;;;;;;;;;;;;;;;2.56;93.42;96790.41;30001;983;1881;-61
2021/11/21 01:08:08;;;;;;;;;;;;;;;2.54;93.36;96792.53;30001;983;1868;-62
2021/11/21 01:08:39;;;;;;;;;;;;;;;2.51;93.33;96782.31;30001;983;1876;-63
2021/11/21 01:09:10;;;;;;;;;;;;;;;2.50;93.58;96786.03;30001;983;1885;-62
2021/11/21 01:09:41;;;;;;;;;;;;;;;2.50;93.72;96780.69;30001;983;1881;-62
2021/11/21 01:10:14;;;;;;;;;;;;;;;2.51;93.78;96782.31;30001;983;1885;-63
2021/11/21 01:10:46;;;;;;;;;;;;;;;2.51;93.61;96787.66;30001;983;1881;-61
2021/11/21 01:11:17;;;;;;;;;;;;;;;2.50;93.53;96786.03;30001;973;1907;-61
2021/11/21 01:11:48;;;;;;;;;;;;;;;2.50;93.45;96785.22;30001;982;1864;-62
2021/11/21 01:12:19;;;;;;;;;;;;;;;2.49;93.83;96784.41;30001;982;1864;-61
2021/11/21 01:12:53;;;;;;;;;;;;;;;2.50;93.66;96793.25;30001;982;1864;-62
2021/11/21 01:13:25;;;;;;;;;;;;;;;2.51;93.49;96792.19;30001;982;1882;-62
2021/11/21 01:13:56;;;;;;;;;;;;;;;2.54;93.79;96792.53;30001;982;1882;-62
2021/11/21 01:14:28;;;;;;;;;;;;;;;2.63;93.50;96795.62;30001;983;1885;-62
2021/11/21 01:14:59;;;;;;;;;;;;;;;2.65;93.30;96791.63;30001;983;1881;-62
2021/11/21 01:15:30;;;;;;;;;;;;;;;2.65;93.28;96788.97;30001;983;1885;-62
2021/11/21 01:16:01;;;;;;;;;;;;;;;2.62;92.70;96786.75;30001;983;1881;-61
2021/11/21 01:16:32;;;;;;;;;;;;;;;2.59;92.56;96784.56;30001;983;1868;-60
2021/11/21 01:17:04;;;;;;;;;;;;;;;2.59;92.62;96791.78;30001;983;1877;-61
2021/11/21 01:17:35;;;;;;;;;;;;;;;2.59;93.03;96800.66;30001;983;1886;-62
2021/11/21 01:18:06;;;;;;;;;;;;;;;2.62;92.97;96794.00;30001;983;1881;-62
2021/11/21 01:18:37;;;;;;;;;;;;;;;2.63;92.84;96806.34;30001;983;1886;-62
2021/11/21 01:19:08;;;;;;;;;;;;;;;2.62;92.61;96800.16;30001;982;1881;-61
2021/11/21 01:19:43;;;;;;;;;;;;;;;2.61;93.05;96798.53;30001;982;1886;-61
2021/11/21 01:20:15;;;;;;;;;;;;;;;2.63;92.68;96801.78;30001;982;1882;-60
2021/11/21 01:20:47;;;;;;;;;;;;;;;2.62;92.92;96800.16;30001;982;1886;-61
2021/11/21 01:21:17;;;;;;;;;;;;;;;2.62;92.75;96800.16;30001;982;1882;-61
2021/11/21 01:21:49;;;;;;;;;;;;;;;2.62;92.84;96802.84;30001;983;1868;-61
2021/11/21 01:22:20;;;;;;;;;;;;;;;2.61;92.87;96798.53;30001;983;1876;-62
2021/11/21 01:22:51;;;;;;;;;;;;;;;2.61;92.76;96798.53;30001;983;1885;-61
2021/11/21 01:23:22;;;;;;;;;;;;;;;2.61;92.84;96798.53;30001;983;1881;-61
2021/11/21 01:23:53;;;;;;;;;;;;;;;2.60;92.81;96804.12;30001;983;1885;-61
2021/11/21 01:24:24;;;;;;;;;;;;;;;2.60;92.66;96802.28;30001;983;1881;-58
2021/11/21 01:24:56;;;;;;;;;;;;;;;2.59;92.64;96800.66;30001;983;1886;-62
2021/11/21 01:25:27;;;;;;;;;;;;;;;2.58;92.80;96804.38;30001;983;1881;-62
2021/11/21 01:25:58;;;;;;;;;;;;;;;2.56;92.63;96797.66;30001;983;1886;-58
2021/11/21 01:26:28;;;;;;;;;;;;;;;2.53;92.89;96796.25;30001;972;1903;-56
2021/11/21 01:26:59;;;;;;;;;;;;;;;2.52;92.91;96793.81;30001;982;1868;-58
2021/11/21 01:27:30;;;;;;;;;;;;;;;2.52;92.79;96802.66;30001;982;1877;-62
2021/11/21 01:28:01;;;;;;;;;;;;;;;2.52;92.79;96794.63;30001;982;1886;-60
2021/11/21 01:28:32;;;;;;;;;;;;;;;2.51;93.01;96792.19;30001;982;1882;-60
2021/11/21 01:29:03;;;;;;;;;;;;;;;2.51;92.88;96793.00;30001;982;1794;-60
2021/11/21 01:29:34;;;;;;;;;;;;;;;2.53;93.28;96796.25;30001;983;1881;-61
2021/11/21 01:30:07;;;;;;;;;;;;;;;2.52;93.16;96794.63;30001;983;1885;-60
2021/11/21 01:30:38;;;;;;;;;;;;;;;2.52;93.11;96788.47;30001;983;1881;-61
2021/11/21 01:31:09;;;;;;;;;;;;;;;2.48;92.55;96788.12;30001;983;1885;-57
2021/11/21 01:31:41;;;;;;;;;;;;;;;2.48;92.98;96788.12;30001;983;1881;-61
2021/11/21 01:32:12;;;;;;;;;;;;;;;2.47;93.10;96789.19;30001;983;1868;-62
2021/11/21 01:32:44;;;;;;;;;;;;;;;2.46;92.81;96784.91;30001;983;1877;-61
2021/11/21 01:33:14;;;;;;;;;;;;;;;2.47;93.23;96785.72;30001;983;1886;-62
2021/11/21 01:33:46;;;;;;;;;;;;;;;2.48;93.12;96788.12;30001;983;1881;-62
2021/11/21 01:34:17;;;;;;;;;;;;;;;2.48;93.11;96788.12;30001;982;1886;-62
2021/11/21 01:34:47;;;;;;;;;;;;;;;2.47;93.12;96791.87;30001;982;1881;-61
2021/11/21 01:35:18;;;;;;;;;;;;;;;2.46;93.15;96787.56;30001;982;1886;-62
2021/11/21 01:35:49;;;;;;;;;;;;;;;2.46;93.26;96784.09;30001;982;1882;-61
2021/11/21 01:36:20;;;;;;;;;;;;;;;2.47;93.14;96785.72;30001;982;1886;-61
2021/11/21 01:36:51;;;;;;;;;;;;;;;2.47;93.36;96783.84;30001;983;1881;-61
2021/11/21 01:37:22;;;;;;;;;;;;;;;2.47;93.47;96786.50;30001;983;1868;-57
2021/11/21 01:37:53;;;;;;;;;;;;;;;2.48;93.47;96776.63;30001;983;1877;-62
2021/11/21 01:38:24;;;;;;;;;;;;;;;2.47;93.39;96783.84;30001;983;1885;-61
2021/11/21 01:38:55;;;;;;;;;;;;;;;2.47;93.16;96781.16;30001;983;1881;-61
2021/11/21 01:39:26;;;;;;;;;;;;;;;2.46;93.04;96784.91;30001;983;1885;-61
2021/11/21 01:39:57;;;;;;;;;;;;;;;2.43;92.88;96785.37;30001;983;1881;-62
2021/11/21 01:40:27;;;;;;;;;;;;;;;2.41;92.94;96781.34;30001;983;1886;-62
2021/11/21 01:40:58;;;;;;;;;;;;;;;2.40;92.95;96775.19;30001;983;1881;-61
2021/11/21 01:41:29;;;;;;;;;;;;;;;2.40;93.22;96772.50;30001;983;1886;-56
2021/11/21 01:42:00;;;;;;;;;;;;;;;2.40;93.28;96780.53;30001;982;1881;-61
2021/11/21 01:42:31;;;;;;;;;;;;;;;2.40;93.49;96777.84;30001;985;1868;-62
2021/11/21 01:43:03;;;;;;;;;;;;;;;2.39;93.08;96767.38;30001;982;1877;-62
2021/11/21 01:43:34;;;;;;;;;;;;;;;2.36;93.12;96774.03;30001;982;1886;-62
2021/11/21 01:44:08;;;;;;;;;;;;;;;2.37;93.50;96775.66;30001;982;1882;-62
2021/11/21 01:44:38;;;;;;;;;;;;;;;2.36;93.16;96774.03;30001;983;1885;-62
2021/11/21 01:45:10;;;;;;;;;;;;;;;2.38;93.27;96771.94;30001;983;1881;-61
2021/11/21 01:45:41;;;;;;;;;;;;;;;2.39;93.41;96772.75;30001;983;1885;-61
2021/11/21 01:46:12;;;;;;;;;;;;;;;2.37;93.19;96770.31;30001;983;1881;-62
2021/11/21 01:46:43;;;;;;;;;;;;;;;2.37;93.55;96773.00;30001;983;1885;-62
2021/11/21 01:47:14;;;;;;;;;;;;;;;2.34;93.34;96770.78;30001;983;1881;-62
2021/11/21 01:47:46;;;;;;;;;;;;;;;2.32;93.38;96772.91;30001;983;1868;-60
2021/11/21 01:48:17;;;;;;;;;;;;;;;2.30;93.33;96769.66;30001;983;1877;-62
2021/11/21 01:48:48;;;;;;;;;;;;;;;2.32;93.35;96772.91;30001;982;1797;-62
2021/11/21 01:49:19;;;;;;;;;;;;;;;2.31;93.47;96771.28;30001;982;1881;-62
2021/11/21 01:49:49;;;;;;;;;;;;;;;2.32;93.49;96773.72;30001;982;1886;-61
2021/11/21 01:50:25;;;;;;;;;;;;;;;2.33;93.54;96771.84;30001;982;1882;-62
2021/11/21 01:50:58;;;;;;;;;;;;;;;2.35;93.58;96772.41;30001;982;1886;-62
2021/11/21 01:51:29;;;;;;;;;;;;;;;2.35;93.67;96772.41;30001;982;1882;-62
2021/11/21 01:52:00;;;;;;;;;;;;;;;2.36;93.83;96779.41;30001;983;1885;-63
2021/11/21 01:52:31;;;;;;;;;;;;;;;2.34;93.20;96771.59;30001;983;1881;-62
2021/11/21 01:53:02;;;;;;;;;;;;;;;2.33;93.64;96771.84;30001;983;1868;-63
2021/11/21 01:53:33;;;;;;;;;;;;;;;2.33;93.47;96771.84;30001;983;1877;-61
2021/11/21 01:54:05;;;;;;;;;;;;;;;2.34;93.25;96770.78;30001;983;1885;-61
2021/11/21 01:54:36;;;;;;;;;;;;;;;2.34;93.22;96770.78;30001;983;1881;-62
2021/11/21 01:55:07;;;;;;;;;;;;;;;2.33;92.95;96769.16;30001;983;1886;-61
2021/11/21 01:55:39;;;;;;;;;;;;;;;2.31;92.61;96771.28;30001;983;1881;-62
2021/11/21 01:56:11;;;;;;;;;;;;;;;2.25;92.88;96767.69;30001;982;1886;-61
2021/11/21 01:56:42;;;;;;;;;;;;;;;2.23;92.90;96769.00;30001;982;1881;-62
2021/11/21 01:57:12;;;;;;;;;;;;;;;2.21;93.02;96768.44;30001;982;1886;-60
2021/11/21 01:57:43;;;;;;;;;;;;;;;2.21;93.24;96777.28;30001;961;1903;-62
2021/11/21 01:58:18;;;;;;;;;;;;;;;2.21;93.33;96777.28;30001;982;1868;-62
2021/11/21 01:58:49;;;;;;;;;;;;;;;2.23;93.28;96764.47;30001;982;1877;-62
2021/11/21 01:59:19;;;;;;;;;;;;;;;2.23;93.18;96769.81;30001;983;1885;-62
2021/11/21 01:59:50;;;;;;;;;;;;;;;2.24;93.44;96766.06;30001;983;1881;-62
2021/11/21 02:00:22;;;;;;;;;;;;;;;2.21;93.30;96771.91;30001;983;1885;-60
2021/11/21 02:00:53;;;;;;;;;;;;;;;2.21;93.61;96766.56;30001;983;1881;-62
2021/11/21 02:01:24;;;;;;;;;;;;;;;2.20;93.50;96761.44;30001;983;1885;-61
2021/11/21 02:01:55;;;;;;;;;;;;;;;2.22;93.50;96762.03;30001;983;1881;-62
2021/11/21 02:02:26;;;;;;;;;;;;;;;2.21;93.70;96766.56;30001;983;1885;-61
2021/11/21 02:02:58;;;;;;;;;;;;;;;2.22;93.69;96756.66;30001;983;1881;-62
2021/11/21 02:03:29;;;;;;;;;;;;;;;2.21;94.05;96757.72;30001;982;1868;-62
2021/11/21 02:04:00;;;;;;;;;;;;;;;2.20;94.08;96762.25;30001;982;1778;-62
2021/11/21 02:04:30;;;;;;;;;;;;;;;2.20;94.21;96758.78;30001;982;1886;-62
2021/11/21 02:05:01;;;;;;;;;;;;;;;2.19;94.07;96757.16;30001;982;1881;-62
2021/11/21 02:05:33;;;;;;;;;;;;;;;2.18;94.14;96755.53;30001;982;1886;-62
2021/11/21 02:06:04;;;;;;;;;;;;;;;2.19;94.11;96757.16;30001;982;1882;-62
2021/11/21 02:06:35;;;;;;;;;;;;;;;2.18;94.17;96755.53;30001;982;1886;-61
2021/11/21 02:07:06;;;;;;;;;;;;;;;2.18;94.03;96750.16;30001;983;1881;-62
2021/11/21 02:07:41;;;;;;;;;;;;;;;2.16;94.10;96757.62;30001;983;1885;-62
2021/11/21 02:08:12;;;;;;;;;;;;;;;2.14;94.09;96749.84;30001;983;1881;-62
2021/11/21 02:08:44;;;;;;;;;;;;;;;2.15;94.40;96745.31;30001;983;1868;-61
2021/11/21 02:09:15;;;;;;;;;;;;;;;2.16;94.23;96747.72;30001;983;1859;-61
2021/11/21 02:09:46;;;;;;;;;;;;;;;2.16;94.49;96745.06;30001;983;1885;-60
2021/11/21 02:10:20;;;;;;;;;;;;;;;2.18;94.28;96750.16;30001;983;1864;-56
2021/11/21 02:10:57;;;;;;;;;;;;;;;2.16;94.23;96746.94;30001;983;1881;-61
2021/11/21 02:11:28;;;;;;;;;;;;;;;2.17;93.92;96748.53;30001;982;1881;-61
2021/11/21 02:11:59;;;;;;;;;;;;;;;2.18;93.92;96750.16;30001;982;1886;-61
2021/11/21 02:12:29;;;;;;;;;;;;;;;2.18;93.97;96747.50;30001;982;1881;-61
2021/11/21 02:13:01;;;;;;;;;;;;;;;2.19;94.08;96749.13;30001;982;1886;-61
2021/11/21 02:13:32;;;;;;;;;;;;;;;2.18;93.86;96742.12;30001;982;1882;-61
2021/11/21 02:14:03;;;;;;;;;;;;;;;2.17;94.15;96744.00;30001;982;1886;-60
2021/11/21 02:14:35;;;;;;;;;;;;;;;2.19;93.95;96749.13;30001;983;1881;-61
2021/11/21 02:15:13;;;;;;;;;;;;;;;2.20;94.11;96748.06;30001;983;1885;-61
2021/11/21 02:15:45;;;;;;;;;;;;;;;2.20;93.92;96748.88;30001;983;1863;-61
2021/11/21 02:16:16;;;;;;;;;;;;;;;2.22;94.01;96751.31;30001;983;1881;-61
2021/11/21 02:16:47;;;;;;;;;;;;;;;2.22;93.76;96752.13;30001;983;1881;-61
2021/11/21 02:17:18;;;;;;;;;;;;;;;2.24;93.70;96743.84;30001;983;1885;-61
2021/11/21 02:17:50;;;;;;;;;;;;;;;2.24;93.92;96741.16;30001;983;1881;-60
2021/11/21 02:18:21;;;;;;;;;;;;;;;2.23;93.58;96737.69;30001;983;1886;-61
2021/11/21 02:18:52;;;;;;;;;;;;;;;2.24;93.41;96738.50;30001;982;1881;-61
2021/11/21 02:19:23;;;;;;;;;;;;;;;2.23;93.68;96737.69;30001;982;1886;-61
2021/11/21 02:19:54;;;;;;;;;;;;;;;2.23;93.46;96736.88;30001;982;1881;-60
2021/11/21 02:20:44;;;;;;;;;;;;;;;2.24;93.66;96742.00;30001;982;1886;-61
2021/11/21 02:21:16;;;;;;;;;;;;;;;2.28;93.57;96745.00;30001;983;1863;-61
2021/11/21 02:21:47;;;;;;;;;;;;;;;2.30;93.32;96741.00;30001;983;1881;-61
2021/11/21 02:22:17;;;;;;;;;;;;;;;2.31;93.16;96739.16;30001;983;1881;-60
2021/11/21 02:22:48;;;;;;;;;;;;;;;2.32;93.23;96740.78;30001;983;1885;-60
2021/11/21 02:23:20;;;;;;;;;;;;;;;2.32;92.74;96740.78;30001;983;1881;-61
2021/11/21 02:23:51;;;;;;;;;;;;;;;2.29;92.83;96743.94;30001;983;1885;-61
2021/11/21 02:24:22;;;;;;;;;;;;;;;2.29;92.56;96743.94;30001;983;1881;-59
2021/11/21 02:24:53;;;;;;;;;;;;;;;2.29;92.75;96741.25;30001;983;1886;-61
2021/11/21 02:25:24;;;;;;;;;;;;;;;2.28;92.90;96745.00;30001;983;1881;-60
2021/11/21 02:25:55;;;;;;;;;;;;;;;2.26;92.53;96739.06;30001;983;1886;-61
2021/11/21 02:26:26;;;;;;;;;;;;;;;2.23;92.61;96740.38;30001;982;1864;-61
2021/11/21 02:26:57;;;;;;;;;;;;;;;2.18;92.19;96742.12;30001;982;1881;-62
2021/11/21 02:27:29;;;;;;;;;;;;;;;2.13;92.32;96750.91;30001;982;1882;-61
2021/11/21 02:28:00;;;;;;;;;;;;;;;2.07;92.50;96743.88;30001;982;1886;-61
2021/11/21 02:28:33;;;;;;;;;;;;;;;2.04;92.52;96740.84;30001;982;1864;-62
2021/11/21 02:29:04;;;;;;;;;;;;;;;2.01;92.78;96740.28;30001;983;1881;-61
2021/11/21 02:29:35;;;;;;;;;;;;;;;2.03;92.84;96736.56;30001;983;1881;-61
2021/11/21 02:30:07;;;;;;;;;;;;;;;2.03;92.92;96747.25;30001;983;1885;-60
2021/11/21 02:30:38;;;;;;;;;;;;;;;2.03;93.32;96747.25;30001;983;1881;-62
2021/11/21 02:31:11;;;;;;;;;;;;;;;2.01;93.55;96740.28;30001;983;1868;-62
2021/11/21 02:31:42;;;;;;;;;;;;;;;2.01;93.48;96745.63;30001;983;1877;-61
2021/11/21 02:32:13;;;;;;;;;;;;;;;2.00;93.41;96741.34;30001;983;1886;-60
2021/11/21 02:32:45;;;;;;;;;;;;;;;2.01;93.59;96745.63;30001;983;1881;-61
2021/11/21 02:33:18;;;;;;;;;;;;;;;2.03;93.48;96744.59;30001;983;1886;-62
2021/11/21 02:33:50;;;;;;;;;;;;;;;2.02;93.77;96735.75;30001;982;1864;-61
2021/11/21 02:34:21;;;;;;;;;;;;;;;2.01;93.67;96734.94;30001;982;1881;-62
2021/11/21 02:34:53;;;;;;;;;;;;;;;2.04;93.87;96738.19;30001;982;1882;-60
2021/11/21 02:35:24;;;;;;;;;;;;;;;2.04;93.52;96738.19;30001;982;1886;-61
2021/11/21 02:35:56;;;;;;;;;;;;;;;2.03;93.77;96731.19;30001;982;1882;-60
2021/11/21 02:36:28;;;;;;;;;;;;;;;2.00;93.67;96738.66;30001;983;1885;-60
2021/11/21 02:36:59;;;;;;;;;;;;;;;2.00;93.70;96730.63;30001;983;1881;-62
2021/11/21 02:37:31;;;;;;;;;;;;;;;1.99;93.84;96731.69;30001;983;1885;-61
2021/11/21 02:38:01;;;;;;;;;;;;;;;1.99;94.13;96730.87;30001;983;1881;-62
2021/11/21 02:38:33;;;;;;;;;;;;;;;1.99;93.99;96730.87;30001;983;1885;-61
2021/11/21 02:39:04;;;;;;;;;;;;;;;2.00;94.29;96727.16;30001;983;1863;-61
2021/11/21 02:39:38;;;;;;;;;;;;;;;1.99;94.30;96729.00;30001;983;1881;-60
2021/11/21 02:40:10;;;;;;;;;;;;;;;2.00;94.26;96727.97;30001;983;1881;-62
2021/11/21 02:40:41;;;;;;;;;;;;;;;1.99;94.29;96723.66;30001;983;1886;-60
2021/11/21 02:41:12;;;;;;;;;;;;;;;1.99;94.29;96729.00;30001;983;1881;-61
2021/11/21 02:41:43;;;;;;;;;;;;;;;1.99;94.21;96725.53;30001;982;1886;-61
2021/11/21 02:42:25;;;;;;;;;;;;;;;1.99;94.41;96725.53;30001;982;1882;-61
2021/11/21 02:42:56;;;;;;;;;;;;;;;2.00;94.30;96722.59;30001;982;1886;-61
2021/11/21 02:43:27;;;;;;;;;;;;;;;2.03;94.49;96725.84;30001;982;1882;-61
2021/11/21 02:43:58;;;;;;;;;;;;;;;2.01;94.08;96718.06;30001;983;1885;-61
2021/11/21 02:44:29;;;;;;;;;;;;;;;2.00;93.98;96721.78;30001;983;1863;-61
2021/11/21 02:45:00;;;;;;;;;;;;;;;1.98;94.22;96724.72;30001;983;1881;-61
2021/11/21 02:45:31;;;;;;;;;;;;;;;1.96;94.23;96716.13;30001;983;1881;-62
2021/11/21 02:46:03;;;;;;;;;;;;;;;1.95;93.93;96719.84;30001;983;1885;-61
2021/11/21 02:46:38;;;;;;;;;;;;;;;1.92;94.10;96723.00;30001;983;1863;-62
2021/11/21 02:47:09;;;;;;;;;;;;;;;1.90;94.02;96717.06;30001;975;1899;-61
2021/11/21 02:47:40;;;;;;;;;;;;;;;1.89;94.16;96715.44;30001;983;1881;-62
2021/11/21 02:48:15;;;;;;;;;;;;;;;1.90;93.94;96719.75;30001;983;1886;-61
2021/11/21 02:48:46;;;;;;;;;;;;;;;1.88;93.92;96705.81;30001;983;1881;-61
2021/11/21 02:49:17;;;;;;;;;;;;;;;1.87;94.17;96706.84;30001;982;1886;-60
2021/11/21 02:49:48;;;;;;;;;;;;;;;1.89;93.92;96714.63;30001;982;1882;-57
2021/11/21 02:50:21;;;;;;;;;;;;;;;1.89;94.27;96715.44;30001;982;1886;-60
2021/11/21 02:50:53;;;;;;;;;;;;;;;1.90;94.51;96710.91;30001;982;1882;-60
2021/11/21 02:51:24;;;;;;;;;;;;;;;1.89;94.49;96715.44;30001;983;1885;-61